sensor_id;sensor_type;location;lat;lon;timestamp;P1;durP1;ratioP1;P2;durP2;ratioP2
52854;SDS011;38719;51.418;7.286;2022-09-04T00:01:44;3.08;;;2.78;;
52854;SDS011;38719;51.418;7.286;2022-09-04T00:04:23;3.17;;;2.78;;
52854;SDS011;38719;51.418;7.286;2022-09-04T00:07:03;3.65;;;2.90;;
52854;SDS011;38719;51.418;7.286;2022-09-04T00:09:40;4.00;;;3.13;;
52854;SDS011;38719;51.418;7.286;2022-09-04T00:12:20;3.05;;;2.75;;
52854;SDS011;38719;51.418;7.286;2022-09-04T00:14:53;5.07;;;2.80;;
52854;SDS011;38719;51.418;7.286;2022-09-04T00:19:59;3.20;;;2.90;;
52854;SDS011;38719;51.418;7.286;2022-09-04T00:22:32;4.47;;;3.10;;
52854;SDS011;38719;51.418;7.286;2022-09-04T00:25:08;3.65;;;3.30;;
52854;SDS011;38719;51.418;7.286;2022-09-04T00:30:13;3.63;;;2.90;;
52854;SDS011;38719;51.418;7.286;2022-09-04T00:32:47;4.22;;;3.05;;
52854;SDS011;38719;51.418;7.286;2022-09-04T00:35:21;3.70;;;2.90;;
52854;SDS011;38719;51.418;7.286;2022-09-04T00:37:57;2.95;;;2.70;;
52854;SDS011;38719;51.418;7.286;2022-09-04T00:40:29;3.53;;;2.90;;
52854;SDS011;38719;51.418;7.286;2022-09-04T00:43:16;3.65;;;2.88;;
52854;SDS011;38719;51.418;7.286;2022-09-04T00:46:05;3.30;;;3.00;;
52854;SDS011;38719;51.418;7.286;2022-09-04T00:48:51;3.50;;;3.00;;
52854;SDS011;38719;51.418;7.286;2022-09-04T00:51:38;3.78;;;3.33;;
52854;SDS011;38719;51.418;7.286;2022-09-04T00:54:40;5.47;;;3.35;;
52854;SDS011;38719;51.418;7.286;2022-09-04T00:57:24;5.80;;;3.20;;
52854;SDS011;38719;51.418;7.286;2022-09-04T01:00:06;4.72;;;2.88;;
52854;SDS011;38719;51.418;7.286;2022-09-04T01:02:51;3.60;;;3.10;;
52854;SDS011;38719;51.418;7.286;2022-09-04T01:05:38;3.88;;;3.20;;
52854;SDS011;38719;51.418;7.286;2022-09-04T01:08:17;7.00;;;3.10;;
52854;SDS011;38719;51.418;7.286;2022-09-04T01:11:00;3.88;;;3.10;;
52854;SDS011;38719;51.418;7.286;2022-09-04T01:13:37;4.43;;;3.35;;
52854;SDS011;38719;51.418;7.286;2022-09-04T01:16:08;4.97;;;3.08;;
52854;SDS011;38719;51.418;7.286;2022-09-04T01:18:42;5.60;;;2.83;;
52854;SDS011;38719;51.418;7.286;2022-09-04T01:27:08;4.30;;;3.20;;
52854;SDS011;38719;51.418;7.286;2022-09-04T01:29:46;3.33;;;3.00;;
52854;SDS011;38719;51.418;7.286;2022-09-04T01:32:25;4.28;;;3.00;;
52854;SDS011;38719;51.418;7.286;2022-09-04T01:35:03;3.85;;;3.10;;
52854;SDS011;38719;51.418;7.286;2022-09-04T01:37:40;5.43;;;3.20;;
52854;SDS011;38719;51.418;7.286;2022-09-04T01:40:19;7.22;;;3.20;;
52854;SDS011;38719;51.418;7.286;2022-09-04T01:43:03;7.03;;;3.28;;
52854;SDS011;38719;51.418;7.286;2022-09-04T01:45:45;5.70;;;3.00;;
52854;SDS011;38719;51.418;7.286;2022-09-04T01:48:34;3.67;;;3.00;;
52854;SDS011;38719;51.418;7.286;2022-09-04T01:51:12;6.70;;;4.40;;
52854;SDS011;38719;51.418;7.286;2022-09-04T01:53:48;3.78;;;3.00;;
52854;SDS011;38719;51.418;7.286;2022-09-04T01:56:27;3.30;;;3.00;;
52854;SDS011;38719;51.418;7.286;2022-09-04T01:59:07;4.13;;;3.33;;
52854;SDS011;38719;51.418;7.286;2022-09-04T02:01:43;4.88;;;3.10;;
52854;SDS011;38719;51.418;7.286;2022-09-04T02:04:20;3.53;;;3.05;;
52854;SDS011;38719;51.418;7.286;2022-09-04T02:06:56;3.67;;;3.38;;
52854;SDS011;38719;51.418;7.286;2022-09-04T02:09:32;4.28;;;3.15;;
52854;SDS011;38719;51.418;7.286;2022-09-04T02:12:10;7.30;;;3.40;;
52854;SDS011;38719;51.418;7.286;2022-09-04T02:14:50;3.60;;;3.00;;
52854;SDS011;38719;51.418;7.286;2022-09-04T02:17:28;3.35;;;3.05;;
52854;SDS011;38719;51.418;7.286;2022-09-04T02:20:07;3.45;;;3.15;;
52854;SDS011;38719;51.418;7.286;2022-09-04T02:22:44;3.35;;;2.78;;
52854;SDS011;38719;51.418;7.286;2022-09-04T02:25:26;3.28;;;2.83;;
52854;SDS011;38719;51.418;7.286;2022-09-04T02:28:02;5.57;;;3.22;;
52854;SDS011;38719;51.418;7.286;2022-09-04T02:30:44;4.22;;;3.45;;
52854;SDS011;38719;51.418;7.286;2022-09-04T02:33:21;3.20;;;2.90;;
52854;SDS011;38719;51.418;7.286;2022-09-04T02:35:56;3.78;;;3.38;;
52854;SDS011;38719;51.418;7.286;2022-09-04T02:38:36;4.75;;;3.20;;
52854;SDS011;38719;51.418;7.286;2022-09-04T02:41:14;3.67;;;3.20;;
52854;SDS011;38719;51.418;7.286;2022-09-04T02:43:59;3.95;;;3.13;;
52854;SDS011;38719;51.418;7.286;2022-09-04T02:46:41;3.80;;;3.20;;
52854;SDS011;38719;51.418;7.286;2022-09-04T02:49:22;3.45;;;3.15;;
52854;SDS011;38719;51.418;7.286;2022-09-04T02:52:00;4.60;;;3.30;;
52854;SDS011;38719;51.418;7.286;2022-09-04T02:54:37;4.43;;;3.15;;
52854;SDS011;38719;51.418;7.286;2022-09-04T02:57:16;3.60;;;3.30;;
52854;SDS011;38719;51.418;7.286;2022-09-04T02:59:54;3.60;;;3.13;;
52854;SDS011;38719;51.418;7.286;2022-09-04T03:02:34;3.60;;;3.25;;
52854;SDS011;38719;51.418;7.286;2022-09-04T03:05:10;3.47;;;3.17;;
52854;SDS011;38719;51.418;7.286;2022-09-04T03:07:47;4.07;;;3.55;;
52854;SDS011;38719;51.418;7.286;2022-09-04T03:10:21;3.95;;;3.55;;
52854;SDS011;38719;51.418;7.286;2022-09-04T03:12:55;6.20;;;3.15;;
52854;SDS011;38719;51.418;7.286;2022-09-04T03:15:32;4.93;;;3.45;;
52854;SDS011;38719;51.418;7.286;2022-09-04T03:18:09;6.28;;;3.58;;
52854;SDS011;38719;51.418;7.286;2022-09-04T03:20:43;3.63;;;3.30;;
52854;SDS011;38719;51.418;7.286;2022-09-04T03:23:18;5.97;;;3.20;;
52854;SDS011;38719;51.418;7.286;2022-09-04T03:28:50;3.67;;;3.33;;
52854;SDS011;38719;51.418;7.286;2022-09-04T03:31:28;5.22;;;3.28;;
52854;SDS011;38719;51.418;7.286;2022-09-04T03:34:05;6.75;;;3.20;;
52854;SDS011;38719;51.418;7.286;2022-09-04T03:36:47;3.53;;;3.23;;
52854;SDS011;38719;51.418;7.286;2022-09-04T03:39:26;4.38;;;3.72;;
52854;SDS011;38719;51.418;7.286;2022-09-04T03:42:11;3.83;;;3.40;;
52854;SDS011;38719;51.418;7.286;2022-09-04T03:44:49;3.65;;;3.28;;
52854;SDS011;38719;51.418;7.286;2022-09-04T03:47:31;3.95;;;3.30;;
52854;SDS011;38719;51.418;7.286;2022-09-04T03:50:12;3.67;;;3.38;;
52854;SDS011;38719;51.418;7.286;2022-09-04T03:52:52;4.00;;;3.60;;
52854;SDS011;38719;51.418;7.286;2022-09-04T03:55:34;4.07;;;3.50;;
52854;SDS011;38719;51.418;7.286;2022-09-04T03:58:16;4.57;;;3.55;;
52854;SDS011;38719;51.418;7.286;2022-09-04T04:00:56;5.68;;;3.25;;
52854;SDS011;38719;51.418;7.286;2022-09-04T04:03:46;7.22;;;3.50;;
52854;SDS011;38719;51.418;7.286;2022-09-04T04:06:26;4.43;;;3.42;;
52854;SDS011;38719;51.418;7.286;2022-09-04T04:09:08;4.50;;;3.40;;
52854;SDS011;38719;51.418;7.286;2022-09-04T04:11:54;4.90;;;3.40;;
52854;SDS011;38719;51.418;7.286;2022-09-04T04:14:45;5.22;;;3.17;;
52854;SDS011;38719;51.418;7.286;2022-09-04T04:17:34;4.28;;;3.53;;
52854;SDS011;38719;51.418;7.286;2022-09-04T04:20:16;4.07;;;3.67;;
52854;SDS011;38719;51.418;7.286;2022-09-04T04:23:00;4.85;;;3.63;;
52854;SDS011;38719;51.418;7.286;2022-09-04T04:25:49;4.07;;;3.50;;
52854;SDS011;38719;51.418;7.286;2022-09-04T04:28:32;4.28;;;3.83;;
52854;SDS011;38719;51.418;7.286;2022-09-04T04:31:17;6.70;;;3.70;;
52854;SDS011;38719;51.418;7.286;2022-09-04T04:33:51;4.38;;;3.88;;
52854;SDS011;38719;51.418;7.286;2022-09-04T04:36:33;3.67;;;3.30;;
52854;SDS011;38719;51.418;7.286;2022-09-04T04:39:10;4.40;;;3.50;;
52854;SDS011;38719;51.418;7.286;2022-09-04T04:41:51;4.25;;;3.60;;
52854;SDS011;38719;51.418;7.286;2022-09-04T04:44:36;5.35;;;3.40;;
52854;SDS011;38719;51.418;7.286;2022-09-04T04:47:34;6.80;;;3.67;;
52854;SDS011;38719;51.418;7.286;2022-09-04T04:50:20;3.90;;;3.40;;
52854;SDS011;38719;51.418;7.286;2022-09-04T04:52:55;4.80;;;3.90;;
52854;SDS011;38719;51.418;7.286;2022-09-04T04:55:36;4.63;;;3.55;;
52854;SDS011;38719;51.418;7.286;2022-09-04T04:58:20;5.65;;;3.58;;
52854;SDS011;38719;51.418;7.286;2022-09-04T05:01:01;4.37;;;3.40;;
52854;SDS011;38719;51.418;7.286;2022-09-04T05:03:37;5.70;;;3.53;;
52854;SDS011;38719;51.418;7.286;2022-09-04T05:06:15;6.38;;;3.58;;
52854;SDS011;38719;51.418;7.286;2022-09-04T05:08:53;3.97;;;3.60;;
52854;SDS011;38719;51.418;7.286;2022-09-04T05:11:32;4.90;;;3.45;;
52854;SDS011;38719;51.418;7.286;2022-09-04T05:14:05;4.45;;;3.15;;
52854;SDS011;38719;51.418;7.286;2022-09-04T05:16:51;4.25;;;3.75;;
52854;SDS011;38719;51.418;7.286;2022-09-04T05:19:25;4.53;;;4.00;;
52854;SDS011;38719;51.418;7.286;2022-09-04T05:21:59;4.38;;;3.40;;
52854;SDS011;38719;51.418;7.286;2022-09-04T05:24:35;4.43;;;3.60;;
52854;SDS011;38719;51.418;7.286;2022-09-04T05:27:30;3.83;;;3.40;;
52854;SDS011;38719;51.418;7.286;2022-09-04T05:30:07;6.68;;;3.67;;
52854;SDS011;38719;51.418;7.286;2022-09-04T05:32:39;4.63;;;3.33;;
52854;SDS011;38719;51.418;7.286;2022-09-04T05:35:15;5.18;;;3.90;;
52854;SDS011;38719;51.418;7.286;2022-09-04T05:37:53;4.45;;;3.58;;
52854;SDS011;38719;51.418;7.286;2022-09-04T05:40:28;4.15;;;3.60;;
52854;SDS011;38719;51.418;7.286;2022-09-04T05:43:05;4.00;;;3.60;;
52854;SDS011;38719;51.418;7.286;2022-09-04T05:45:47;3.85;;;3.42;;
52854;SDS011;38719;51.418;7.286;2022-09-04T05:48:24;4.07;;;3.45;;
52854;SDS011;38719;51.418;7.286;2022-09-04T05:50:56;6.22;;;3.28;;
52854;SDS011;38719;51.418;7.286;2022-09-04T05:53:52;8.75;;;3.65;;
52854;SDS011;38719;51.418;7.286;2022-09-04T05:56:59;4.95;;;3.50;;
52854;SDS011;38719;51.418;7.286;2022-09-04T06:00:03;4.65;;;3.40;;
52854;SDS011;38719;51.418;7.286;2022-09-04T06:02:39;7.22;;;3.70;;
52854;SDS011;38719;51.418;7.286;2022-09-04T06:05:34;6.70;;;3.30;;
52854;SDS011;38719;51.418;7.286;2022-09-04T06:08:12;5.20;;;3.33;;
52854;SDS011;38719;51.418;7.286;2022-09-04T06:10:58;4.33;;;3.23;;
52854;SDS011;38719;51.418;7.286;2022-09-04T06:13:47;8.15;;;3.40;;
52854;SDS011;38719;51.418;7.286;2022-09-04T06:16:29;4.25;;;3.50;;
52854;SDS011;38719;51.418;7.286;2022-09-04T06:19:14;3.50;;;3.05;;
52854;SDS011;38719;51.418;7.286;2022-09-04T06:22:09;3.53;;;3.15;;
52854;SDS011;38719;51.418;7.286;2022-09-04T06:30:57;3.92;;;3.20;;
52854;SDS011;38719;51.418;7.286;2022-09-04T06:33:48;4.22;;;3.55;;
52854;SDS011;38719;51.418;7.286;2022-09-04T06:36:39;4.10;;;3.28;;
52854;SDS011;38719;51.418;7.286;2022-09-04T06:39:33;6.45;;;3.85;;
52854;SDS011;38719;51.418;7.286;2022-09-04T06:42:18;6.18;;;3.30;;
52854;SDS011;38719;51.418;7.286;2022-09-04T06:45:04;3.55;;;3.10;;
52854;SDS011;38719;51.418;7.286;2022-09-04T06:47:47;4.85;;;3.42;;
52854;SDS011;38719;51.418;7.286;2022-09-04T06:50:38;5.70;;;3.00;;
52854;SDS011;38719;51.418;7.286;2022-09-04T06:53:16;5.57;;;3.47;;
52854;SDS011;38719;51.418;7.286;2022-09-04T06:55:56;3.85;;;3.25;;
52854;SDS011;38719;51.418;7.286;2022-09-04T07:01:34;5.15;;;3.10;;
52854;SDS011;38719;51.418;7.286;2022-09-04T07:04:11;7.05;;;3.03;;
52854;SDS011;38719;51.418;7.286;2022-09-04T07:06:54;4.20;;;3.35;;
52854;SDS011;38719;51.418;7.286;2022-09-04T07:09:31;4.25;;;3.05;;
52854;SDS011;38719;51.418;7.286;2022-09-04T07:12:11;4.22;;;3.30;;
52854;SDS011;38719;51.418;7.286;2022-09-04T07:15:03;4.57;;;3.30;;
52854;SDS011;38719;51.418;7.286;2022-09-04T07:17:45;6.22;;;2.97;;
52854;SDS011;38719;51.418;7.286;2022-09-04T07:20:28;4.25;;;3.25;;
52854;SDS011;38719;51.418;7.286;2022-09-04T07:23:13;5.13;;;3.08;;
52854;SDS011;38719;51.418;7.286;2022-09-04T07:25:53;4.43;;;2.90;;
52854;SDS011;38719;51.418;7.286;2022-09-04T07:28:49;3.50;;;3.00;;
52854;SDS011;38719;51.418;7.286;2022-09-04T07:31:24;3.80;;;2.90;;
52854;SDS011;38719;51.418;7.286;2022-09-04T07:33:58;4.55;;;3.40;;
52854;SDS011;38719;51.418;7.286;2022-09-04T07:36:35;3.83;;;3.10;;
52854;SDS011;38719;51.418;7.286;2022-09-04T07:39:12;3.90;;;3.00;;
52854;SDS011;38719;51.418;7.286;2022-09-04T07:41:48;4.78;;;3.25;;
52854;SDS011;38719;51.418;7.286;2022-09-04T07:44:23;3.53;;;2.72;;
52854;SDS011;38719;51.418;7.286;2022-09-04T07:46:57;3.75;;;3.08;;
52854;SDS011;38719;51.418;7.286;2022-09-04T07:49:41;5.25;;;3.13;;
52854;SDS011;38719;51.418;7.286;2022-09-04T07:52:19;3.30;;;3.00;;
52854;SDS011;38719;51.418;7.286;2022-09-04T07:54:59;3.25;;;2.95;;
52854;SDS011;38719;51.418;7.286;2022-09-04T07:57:41;3.63;;;2.88;;
52854;SDS011;38719;51.418;7.286;2022-09-04T08:00:22;3.80;;;3.20;;
52854;SDS011;38719;51.418;7.286;2022-09-04T08:02:53;3.75;;;2.80;;
52854;SDS011;38719;51.418;7.286;2022-09-04T08:05:43;4.30;;;2.85;;
52854;SDS011;38719;51.418;7.286;2022-09-04T08:13:48;4.97;;;2.75;;
52854;SDS011;38719;51.418;7.286;2022-09-04T08:16:33;4.80;;;2.75;;
52854;SDS011;38719;51.418;7.286;2022-09-04T08:19:13;4.43;;;2.80;;
52854;SDS011;38719;51.418;7.286;2022-09-04T08:21:47;3.72;;;3.05;;
52854;SDS011;38719;51.418;7.286;2022-09-04T08:24:36;4.00;;;3.15;;
52854;SDS011;38719;51.418;7.286;2022-09-04T08:27:40;3.35;;;2.58;;
52854;SDS011;38719;51.418;7.286;2022-09-04T08:30:29;5.13;;;2.90;;
52854;SDS011;38719;51.418;7.286;2022-09-04T08:33:13;2.92;;;2.63;;
52854;SDS011;38719;51.418;7.286;2022-09-04T08:35:55;2.95;;;2.65;;
52854;SDS011;38719;51.418;7.286;2022-09-04T08:38:41;3.47;;;2.88;;
52854;SDS011;38719;51.418;7.286;2022-09-04T08:41:31;5.43;;;3.22;;
52854;SDS011;38719;51.418;7.286;2022-09-04T08:44:24;3.22;;;2.90;;
52854;SDS011;38719;51.418;7.286;2022-09-04T08:53:13;4.25;;;3.15;;
52854;SDS011;38719;51.418;7.286;2022-09-04T08:55:57;4.45;;;3.13;;
52854;SDS011;38719;51.418;7.286;2022-09-04T09:10:49;4.10;;;3.05;;
52854;SDS011;38719;51.418;7.286;2022-09-04T09:16:41;4.57;;;3.25;;
52854;SDS011;38719;51.418;7.286;2022-09-04T09:19:15;3.63;;;3.22;;
52854;SDS011;38719;51.418;7.286;2022-09-04T09:21:59;4.43;;;3.38;;
52854;SDS011;38719;51.418;7.286;2022-09-04T09:24:41;3.58;;;2.72;;
52854;SDS011;38719;51.418;7.286;2022-09-04T09:30:23;4.40;;;3.10;;
52854;SDS011;38719;51.418;7.286;2022-09-04T09:32:59;5.45;;;2.92;;
52854;SDS011;38719;51.418;7.286;2022-09-04T09:41:44;3.42;;;3.10;;
52854;SDS011;38719;51.418;7.286;2022-09-04T09:47:41;3.20;;;2.90;;
52854;SDS011;38719;51.418;7.286;2022-09-04T09:53:25;4.78;;;3.10;;
52854;SDS011;38719;51.418;7.286;2022-09-04T10:02:46;4.45;;;3.22;;
52854;SDS011;38719;51.418;7.286;2022-09-04T10:05:43;3.72;;;3.10;;
52854;SDS011;38719;51.418;7.286;2022-09-04T10:08:37;4.43;;;3.40;;
52854;SDS011;38719;51.418;7.286;2022-09-04T10:11:30;7.50;;;3.45;;
52854;SDS011;38719;51.418;7.286;2022-09-04T10:14:30;5.05;;;3.40;;
52854;SDS011;38719;51.418;7.286;2022-09-04T10:17:26;5.63;;;3.38;;
52854;SDS011;38719;51.418;7.286;2022-09-04T10:20:23;4.57;;;3.40;;
52854;SDS011;38719;51.418;7.286;2022-09-04T10:26:08;5.43;;;3.25;;
52854;SDS011;38719;51.418;7.286;2022-09-04T10:32:13;4.35;;;3.25;;
52854;SDS011;38719;51.418;7.286;2022-09-04T10:38:05;6.93;;;3.30;;
52854;SDS011;38719;51.418;7.286;2022-09-04T10:40:52;4.10;;;3.20;;
52854;SDS011;38719;51.418;7.286;2022-09-04T10:43:55;4.60;;;3.50;;
52854;SDS011;38719;51.418;7.286;2022-09-04T10:46:36;4.88;;;3.28;;
52854;SDS011;38719;51.418;7.286;2022-09-04T10:49:18;3.58;;;3.10;;
52854;SDS011;38719;51.418;7.286;2022-09-04T10:52:04;3.25;;;2.95;;
52854;SDS011;38719;51.418;7.286;2022-09-04T10:54:59;4.07;;;3.10;;
52854;SDS011;38719;51.418;7.286;2022-09-04T10:58:06;3.88;;;3.13;;
52854;SDS011;38719;51.418;7.286;2022-09-04T11:00:53;5.15;;;3.08;;
52854;SDS011;38719;51.418;7.286;2022-09-04T11:03:41;5.05;;;3.22;;
52854;SDS011;38719;51.418;7.286;2022-09-04T11:09:43;7.88;;;3.30;;
52854;SDS011;38719;51.418;7.286;2022-09-04T11:12:27;3.63;;;3.08;;
52854;SDS011;38719;51.418;7.286;2022-09-04T11:18:06;3.22;;;2.92;;
52854;SDS011;38719;51.418;7.286;2022-09-04T11:21:10;4.65;;;3.30;;
52854;SDS011;38719;51.418;7.286;2022-09-04T11:24:13;12.95;;;3.40;;
52854;SDS011;38719;51.418;7.286;2022-09-04T11:27:19;5.47;;;3.22;;
52854;SDS011;38719;51.418;7.286;2022-09-04T11:30:04;12.45;;;3.47;;
52854;SDS011;38719;51.418;7.286;2022-09-04T11:32:46;3.95;;;3.08;;
52854;SDS011;38719;51.418;7.286;2022-09-04T11:42:06;3.13;;;2.75;;
52854;SDS011;38719;51.418;7.286;2022-09-04T11:51:32;3.65;;;2.95;;
52854;SDS011;38719;51.418;7.286;2022-09-04T11:57:23;4.05;;;3.00;;
52854;SDS011;38719;51.418;7.286;2022-09-04T12:00:07;3.13;;;2.80;;
52854;SDS011;38719;51.418;7.286;2022-09-04T12:05:48;5.22;;;3.03;;
52854;SDS011;38719;51.418;7.286;2022-09-04T12:11:39;4.55;;;2.90;;
52854;SDS011;38719;51.418;7.286;2022-09-04T12:14:30;3.67;;;2.85;;
52854;SDS011;38719;51.418;7.286;2022-09-04T12:23:13;2.95;;;2.70;;
52854;SDS011;38719;51.418;7.286;2022-09-04T12:26:22;2.83;;;2.33;;
52854;SDS011;38719;51.418;7.286;2022-09-04T12:29:28;2.70;;;2.50;;
52854;SDS011;38719;51.418;7.286;2022-09-04T12:32:15;4.00;;;2.85;;
52854;SDS011;38719;51.418;7.286;2022-09-04T12:35:23;5.10;;;2.88;;
52854;SDS011;38719;51.418;7.286;2022-09-04T12:38:05;5.75;;;2.72;;
52854;SDS011;38719;51.418;7.286;2022-09-04T12:40:44;5.43;;;2.75;;
52854;SDS011;38719;51.418;7.286;2022-09-04T12:43:22;3.38;;;2.70;;
52854;SDS011;38719;51.418;7.286;2022-09-04T12:46:04;3.75;;;2.83;;
52854;SDS011;38719;51.418;7.286;2022-09-04T12:48:45;3.00;;;2.70;;
52854;SDS011;38719;51.418;7.286;2022-09-04T12:51:22;2.90;;;2.50;;
52854;SDS011;38719;51.418;7.286;2022-09-04T12:54:06;3.50;;;2.95;;
52854;SDS011;38719;51.418;7.286;2022-09-04T12:56:45;3.22;;;2.72;;
52854;SDS011;38719;51.418;7.286;2022-09-04T12:59:23;4.00;;;2.47;;
52854;SDS011;38719;51.418;7.286;2022-09-04T13:02:03;3.35;;;2.80;;
52854;SDS011;38719;51.418;7.286;2022-09-04T13:04:40;4.22;;;2.85;;
52854;SDS011;38719;51.418;7.286;2022-09-04T13:07:24;3.83;;;2.78;;
52854;SDS011;38719;51.418;7.286;2022-09-04T13:10:02;3.03;;;2.58;;
52854;SDS011;38719;51.418;7.286;2022-09-04T13:12:44;4.28;;;2.80;;
52854;SDS011;38719;51.418;7.286;2022-09-04T13:15:25;3.42;;;2.80;;
52854;SDS011;38719;51.418;7.286;2022-09-04T13:18:01;3.58;;;2.90;;
52854;SDS011;38719;51.418;7.286;2022-09-04T13:20:40;3.67;;;2.63;;
52854;SDS011;38719;51.418;7.286;2022-09-04T13:23:20;3.25;;;2.50;;
52854;SDS011;38719;51.418;7.286;2022-09-04T13:26:06;6.63;;;2.45;;
52854;SDS011;38719;51.418;7.286;2022-09-04T13:28:48;5.78;;;2.92;;
52854;SDS011;38719;51.418;7.286;2022-09-04T13:31:31;2.80;;;2.50;;
52854;SDS011;38719;51.418;7.286;2022-09-04T13:34:11;4.03;;;2.67;;
52854;SDS011;38719;51.418;7.286;2022-09-04T13:36:53;3.95;;;2.35;;
52854;SDS011;38719;51.418;7.286;2022-09-04T13:42:48;3.25;;;2.50;;
52854;SDS011;38719;51.418;7.286;2022-09-04T13:45:46;4.93;;;2.40;;
52854;SDS011;38719;51.418;7.286;2022-09-04T13:48:28;3.30;;;2.85;;
52854;SDS011;38719;51.418;7.286;2022-09-04T13:51:04;4.75;;;2.63;;
52854;SDS011;38719;51.418;7.286;2022-09-04T13:53:43;4.47;;;2.53;;
52854;SDS011;38719;51.418;7.286;2022-09-04T13:56:21;2.97;;;2.50;;
52854;SDS011;38719;51.418;7.286;2022-09-04T13:58:55;4.60;;;2.88;;
52854;SDS011;38719;51.418;7.286;2022-09-04T14:01:28;5.32;;;2.50;;
52854;SDS011;38719;51.418;7.286;2022-09-04T14:04:00;3.47;;;2.67;;
52854;SDS011;38719;51.418;7.286;2022-09-04T14:06:32;2.70;;;2.28;;
52854;SDS011;38719;51.418;7.286;2022-09-04T14:09:02;2.72;;;2.53;;
52854;SDS011;38719;51.418;7.286;2022-09-04T14:11:45;2.88;;;2.50;;
52854;SDS011;38719;51.418;7.286;2022-09-04T14:14:34;2.83;;;2.58;;
52854;SDS011;38719;51.418;7.286;2022-09-04T14:17:15;2.78;;;2.58;;
52854;SDS011;38719;51.418;7.286;2022-09-04T14:19:53;2.97;;;2.65;;
52854;SDS011;38719;51.418;7.286;2022-09-04T14:22:31;2.97;;;2.40;;
52854;SDS011;38719;51.418;7.286;2022-09-04T14:25:12;2.78;;;2.28;;
52854;SDS011;38719;51.418;7.286;2022-09-04T14:27:47;2.95;;;2.65;;
52854;SDS011;38719;51.418;7.286;2022-09-04T14:30:22;2.83;;;2.50;;
52854;SDS011;38719;51.418;7.286;2022-09-04T14:33:04;3.40;;;2.38;;
52854;SDS011;38719;51.418;7.286;2022-09-04T14:35:48;4.22;;;2.60;;
52854;SDS011;38719;51.418;7.286;2022-09-04T14:38:49;5.13;;;2.80;;
52854;SDS011;38719;51.418;7.286;2022-09-04T14:41:30;2.72;;;2.50;;
52854;SDS011;38719;51.418;7.286;2022-09-04T14:44:11;2.85;;;2.60;;
52854;SDS011;38719;51.418;7.286;2022-09-04T14:46:52;4.35;;;2.47;;
52854;SDS011;38719;51.418;7.286;2022-09-04T14:49:31;2.95;;;2.65;;
52854;SDS011;38719;51.418;7.286;2022-09-04T14:52:13;2.53;;;2.30;;
52854;SDS011;38719;51.418;7.286;2022-09-04T14:54:43;4.05;;;2.80;;
52854;SDS011;38719;51.418;7.286;2022-09-04T14:57:18;3.87;;;2.53;;
52854;SDS011;38719;51.418;7.286;2022-09-04T14:59:56;4.60;;;2.60;;
52854;SDS011;38719;51.418;7.286;2022-09-04T15:02:31;2.78;;;2.58;;
52854;SDS011;38719;51.418;7.286;2022-09-04T15:05:06;3.78;;;2.60;;
52854;SDS011;38719;51.418;7.286;2022-09-04T15:07:49;5.07;;;2.60;;
52854;SDS011;38719;51.418;7.286;2022-09-04T15:10:21;3.13;;;2.70;;
52854;SDS011;38719;51.418;7.286;2022-09-04T15:13:07;3.17;;;2.70;;
52854;SDS011;38719;51.418;7.286;2022-09-04T15:15:48;5.47;;;2.80;;
52854;SDS011;38719;51.418;7.286;2022-09-04T15:18:20;3.85;;;2.60;;
52854;SDS011;38719;51.418;7.286;2022-09-04T15:20:56;2.50;;;2.30;;
52854;SDS011;38719;51.418;7.286;2022-09-04T15:23:30;2.83;;;2.53;;
52854;SDS011;38719;51.418;7.286;2022-09-04T15:26:05;2.80;;;2.60;;
52854;SDS011;38719;51.418;7.286;2022-09-04T15:28:39;2.90;;;2.70;;
52854;SDS011;38719;51.418;7.286;2022-09-04T15:31:14;5.13;;;2.92;;
52854;SDS011;38719;51.418;7.286;2022-09-04T15:33:44;6.32;;;2.78;;
52854;SDS011;38719;51.418;7.286;2022-09-04T15:36:16;4.13;;;2.60;;
52854;SDS011;38719;51.418;7.286;2022-09-04T15:38:49;3.10;;;2.78;;
52854;SDS011;38719;51.418;7.286;2022-09-04T15:41:21;4.25;;;2.70;;
52854;SDS011;38719;51.418;7.286;2022-09-04T15:43:54;3.50;;;2.80;;
52854;SDS011;38719;51.418;7.286;2022-09-04T15:46:32;5.28;;;3.33;;
52854;SDS011;38719;51.418;7.286;2022-09-04T15:49:16;4.05;;;2.67;;
52854;SDS011;38719;51.418;7.286;2022-09-04T15:51:52;3.42;;;2.65;;
52854;SDS011;38719;51.418;7.286;2022-09-04T15:54:25;3.00;;;2.65;;
52854;SDS011;38719;51.418;7.286;2022-09-04T15:56:59;3.10;;;2.63;;
52854;SDS011;38719;51.418;7.286;2022-09-04T15:59:35;3.55;;;2.75;;
52854;SDS011;38719;51.418;7.286;2022-09-04T16:02:17;4.15;;;2.78;;
52854;SDS011;38719;51.418;7.286;2022-09-04T16:05:03;3.45;;;2.70;;
52854;SDS011;38719;51.418;7.286;2022-09-04T16:07:40;4.30;;;2.78;;
52854;SDS011;38719;51.418;7.286;2022-09-04T16:10:16;2.95;;;2.60;;
52854;SDS011;38719;51.418;7.286;2022-09-04T16:12:51;6.75;;;2.70;;
52854;SDS011;38719;51.418;7.286;2022-09-04T16:15:26;6.00;;;2.90;;
52854;SDS011;38719;51.418;7.286;2022-09-04T16:17:58;4.72;;;3.05;;
52854;SDS011;38719;51.418;7.286;2022-09-04T16:20:35;3.92;;;2.53;;
52854;SDS011;38719;51.418;7.286;2022-09-04T16:23:16;3.15;;;2.70;;
52854;SDS011;38719;51.418;7.286;2022-09-04T16:25:53;3.42;;;2.85;;
52854;SDS011;38719;51.418;7.286;2022-09-04T16:28:25;3.15;;;2.80;;
52854;SDS011;38719;51.418;7.286;2022-09-04T16:30:56;4.55;;;2.70;;
52854;SDS011;38719;51.418;7.286;2022-09-04T16:33:29;6.95;;;3.10;;
52854;SDS011;38719;51.418;7.286;2022-09-04T16:36:00;3.78;;;2.95;;
52854;SDS011;38719;51.418;7.286;2022-09-04T16:38:32;4.82;;;3.08;;
52854;SDS011;38719;51.418;7.286;2022-09-04T16:41:10;4.65;;;2.83;;
52854;SDS011;38719;51.418;7.286;2022-09-04T16:44:00;4.75;;;2.80;;
52854;SDS011;38719;51.418;7.286;2022-09-04T16:49:15;3.83;;;3.05;;
52854;SDS011;38719;51.418;7.286;2022-09-04T16:51:49;4.05;;;2.95;;
52854;SDS011;38719;51.418;7.286;2022-09-04T16:54:27;5.03;;;2.90;;
52854;SDS011;38719;51.418;7.286;2022-09-04T16:56:58;2.87;;;2.63;;
52854;SDS011;38719;51.418;7.286;2022-09-04T16:59:40;4.57;;;2.75;;
52854;SDS011;38719;51.418;7.286;2022-09-04T17:02:15;3.10;;;2.80;;
52854;SDS011;38719;51.418;7.286;2022-09-04T17:04:46;4.43;;;2.80;;
52854;SDS011;38719;51.418;7.286;2022-09-04T17:07:18;3.80;;;2.80;;
52854;SDS011;38719;51.418;7.286;2022-09-04T17:09:53;3.75;;;2.63;;
52854;SDS011;38719;51.418;7.286;2022-09-04T17:12:34;4.70;;;3.00;;
52854;SDS011;38719;51.418;7.286;2022-09-04T17:15:17;3.03;;;2.72;;
52854;SDS011;38719;51.418;7.286;2022-09-04T17:17:52;4.43;;;2.70;;
52854;SDS011;38719;51.418;7.286;2022-09-04T17:20:22;6.25;;;3.67;;
52854;SDS011;38719;51.418;7.286;2022-09-04T17:23:14;5.93;;;3.80;;
52854;SDS011;38719;51.418;7.286;2022-09-04T17:26:12;4.95;;;3.35;;
52854;SDS011;38719;51.418;7.286;2022-09-04T17:29:02;4.53;;;3.17;;
52854;SDS011;38719;51.418;7.286;2022-09-04T17:31:57;3.42;;;3.03;;
52854;SDS011;38719;51.418;7.286;2022-09-04T17:34:51;3.65;;;2.92;;
52854;SDS011;38719;51.418;7.286;2022-09-04T17:40:36;8.90;;;3.47;;
52854;SDS011;38719;51.418;7.286;2022-09-04T17:43:38;5.30;;;3.25;;
52854;SDS011;38719;51.418;7.286;2022-09-04T17:46:29;5.07;;;3.55;;
52854;SDS011;38719;51.418;7.286;2022-09-04T17:52:00;10.95;;;3.58;;
52854;SDS011;38719;51.418;7.286;2022-09-04T17:54:36;4.50;;;3.50;;
52854;SDS011;38719;51.418;7.286;2022-09-04T17:57:08;5.35;;;3.03;;
52854;SDS011;38719;51.418;7.286;2022-09-04T17:59:45;5.72;;;3.28;;
52854;SDS011;38719;51.418;7.286;2022-09-04T18:02:19;5.60;;;3.50;;
52854;SDS011;38719;51.418;7.286;2022-09-04T18:04:54;3.78;;;3.10;;
52854;SDS011;38719;51.418;7.286;2022-09-04T18:07:28;3.55;;;3.25;;
52854;SDS011;38719;51.418;7.286;2022-09-04T18:10:23;5.03;;;3.13;;
52854;SDS011;38719;51.418;7.286;2022-09-04T18:12:59;5.00;;;3.10;;
52854;SDS011;38719;51.418;7.286;2022-09-04T18:15:56;3.53;;;3.22;;
52854;SDS011;38719;51.418;7.286;2022-09-04T18:18:36;14.05;;;3.83;;
52854;SDS011;38719;51.418;7.286;2022-09-04T18:21:07;5.68;;;3.70;;